Time;durP1;ratioP1;P1;durP2;ratioP2;P2;SDS_P1;SDS_P2;PMS_P1;PMS_P2;Temp;Humidity;BMP_temperature;BMP_pressure;BME280_temperature;BME280_humidity;BME280_pressure;Samples;Min_cycle;Max_cycle;Signal;HPM_P1;HPM_P2
2022/12/26 00:01:11;;;;;;;10.07;4.82;;;;;;;;;;6011022;23;20019;-94
2022/12/26 00:03:37;;;;;;;;;;;;;;;;;;6011913;23;20029;-93
2022/12/26 00:06:02;;;;;;;8.75;4.47;;;;;;;;;;6010217;23;19913;-91
2022/12/26 00:08:28;;;;;;;9.30;4.60;;;;;;;;;;6010378;23;20402;-90
2022/12/26 00:10:53;;;;;;;8.50;4.50;;;;;;;;;;5996735;23;20094;-90
2022/12/26 00:13:19;;;;;;;7.38;4.50;;;;;;;;;;6033526;23;20018;-91
2022/12/26 00:15:44;;;;;;;8.07;4.60;;;;;;;;;;6008924;23;20030;-89
2022/12/26 00:18:13;;;;;;;9.30;4.93;;;;;;;;;;6057048;23;20023;-92
2022/12/26 00:20:38;;;;;;;8.63;4.75;;;;;;;;;;6032379;23;20019;-89
2022/12/26 00:23:04;;;;;;;9.93;4.88;;;;;;;;;;6008119;23;20030;-90
2022/12/26 00:25:29;;;;;;;9.30;4.50;;;;;;;;;;6006985;23;20465;-91
2022/12/26 00:27:55;;;;;;;8.32;4.60;;;;;;;;;;6008975;23;20526;-91
2022/12/26 00:30:21;;;;;;;9.10;5.03;;;;;;;;;;6031593;23;20035;-91
2022/12/26 00:32:46;;;;;;;7.35;4.28;;;;;;;;;;6008961;23;20043;-91
2022/12/26 00:35:12;;;;;;;8.75;4.15;;;;;;;;;;6032873;23;20087;-91
2022/12/26 00:37:37;;;;;;;8.77;4.75;;;;;;;;;;6009649;23;20466;-91
2022/12/26 00:40:03;;;;;;;7.47;4.32;;;;;;;;;;6009339;23;20018;-91
2022/12/26 00:42:29;;;;;;;8.95;4.22;;;;;;;;;;6024421;23;20085;-93
2022/12/26 00:44:54;;;;;;;6.18;3.75;;;;;;;;;;6051042;23;20035;-91
2022/12/26 00:47:22;;;;;;;8.38;3.75;;;;;;;;;;6032737;23;20430;-91
2022/12/26 00:49:47;;;;;;;;;;;;;;;;;;6033328;23;20462;-93
2022/12/26 00:52:13;;;;;;;7.00;3.70;;;;;;;;;;6032971;23;19913;-93
2022/12/26 00:54:38;;;;;;;7.75;4.32;;;;;;;;;;5997747;23;20015;-93
2022/12/26 00:57:04;;;;;;;6.70;4.25;;;;;;;;;;6033725;23;20019;-93
2022/12/26 00:59:29;;;;;;;6.93;3.90;;;;;;;;;;6021943;23;20398;-94
2022/12/26 01:01:55;;;;;;;8.65;4.22;;;;;;;;;;6031788;23;20018;-92
2022/12/26 01:04:20;;;;;;;8.30;4.50;;;;;;;;;;6009360;23;20046;-92
2022/12/26 01:06:51;;;;;;;7.75;4.28;;;;;;;;;;6031300;23;20021;-92
2022/12/26 01:09:17;;;;;;;7.40;4.50;;;;;;;;;;6008219;23;20019;-96
2022/12/26 01:11:42;;;;;;;8.82;4.47;;;;;;;;;;6008989;23;20022;-95
2022/12/26 01:14:18;;;;;;;7.55;4.07;;;;;;;;;;6005935;23;20070;-94
2022/12/26 01:16:45;;;;;;;7.65;4.18;;;;;;;;;;6007310;23;20481;-90
2022/12/26 01:19:11;;;;;;;7.88;4.30;;;;;;;;;;6007001;23;20399;-90
2022/12/26 01:21:37;;;;;;;9.02;4.13;;;;;;;;;;6007721;23;20031;-92
2022/12/26 01:24:05;;;;;;;7.65;4.57;;;;;;;;;;6012017;23;20164;-91
2022/12/26 01:26:31;;;;;;;7.75;4.20;;;;;;;;;;6034512;23;20010;-93
2022/12/26 01:28:56;;;;;;;7.60;3.90;;;;;;;;;;5994544;23;20082;-91
2022/12/26 01:31:22;;;;;;;6.15;4.03;;;;;;;;;;5986095;23;20022;-90
2022/12/26 01:33:48;;;;;;;7.00;3.67;;;;;;;;;;6031508;23;20030;-92
2022/12/26 01:36:14;;;;;;;8.35;4.22;;;;;;;;;;6007288;23;20018;-91
2022/12/26 01:38:40;;;;;;;7.20;3.90;;;;;;;;;;6021697;23;20023;-92
2022/12/26 01:41:21;;;;;;;6.72;4.05;;;;;;;;;;6019977;23;20026;-92
2022/12/26 01:43:49;;;;;;;7.78;4.10;;;;;;;;;;6037723;23;20023;-94
2022/12/26 01:46:19;;;;;;;7.68;3.97;;;;;;;;;;6065645;23;20735;-93
2022/12/26 01:48:44;;;;;;;6.65;3.90;;;;;;;;;;6010277;23;20465;-92
2022/12/26 01:51:10;;;;;;;6.78;4.03;;;;;;;;;;6008409;23;20093;-93
2022/12/26 01:53:44;;;;;;;7.35;3.88;;;;;;;;;;6010602;23;20509;-92
2022/12/26 01:56:13;;;;;;;8.25;4.20;;;;;;;;;;6009477;23;20364;-92
2022/12/26 01:58:43;;;;;;;7.78;3.83;;;;;;;;;;5996812;23;20021;-92
2022/12/26 02:01:11;;;;;;;7.78;4.22;;;;;;;;;;6019964;23;20023;-92
2022/12/26 02:06:22;;;;;;;7.50;4.25;;;;;;;;;;6044890;23;20041;-91
2022/12/26 02:08:53;;;;;;;7.05;4.18;;;;;;;;;;6022672;23;20343;-93
2022/12/26 02:11:33;;;;;;;6.47;3.80;;;;;;;;;;6006759;23;20018;-96
2022/12/26 02:13:59;;;;;;;6.30;3.78;;;;;;;;;;6010816;23;20042;-92
2022/12/26 02:16:25;;;;;;;7.47;4.22;;;;;;;;;;5999469;23;20444;-91
2022/12/26 02:18:50;;;;;;;7.30;3.80;;;;;;;;;;6053601;23;20023;-90
2022/12/26 02:21:30;;;;;;;7.47;4.28;;;;;;;;;;6034244;23;20023;-92
2022/12/26 02:24:32;;;;;;;7.70;4.40;;;;;;;;;;6034269;23;20409;-92
2022/12/26 02:27:11;;;;;;;7.97;4.00;;;;;;;;;;6011597;23;20029;-89
2022/12/26 02:29:49;;;;;;;6.38;3.63;;;;;;;;;;6033675;23;20790;-91
2022/12/26 02:32:24;;;;;;;8.25;4.40;;;;;;;;;;6061429;23;20019;-91
2022/12/26 02:35:01;;;;;;;6.60;4.20;;;;;;;;;;6033717;23;20015;-90
2022/12/26 02:37:52;;;;;;;9.00;4.57;;;;;;;;;;6034132;23;20025;-90
2022/12/26 02:40:56;;;;;;;6.95;4.47;;;;;;;;;;6032907;23;20026;-91
2022/12/26 02:43:40;;;;;;;6.35;4.10;;;;;;;;;;6034132;23;20022;-91
2022/12/26 02:49:11;;;;;;;7.00;4.10;;;;;;;;;;6059738;23;20033;-91
2022/12/26 03:15:09;;;;;;;6.65;4.10;;;;;;;;;;6041663;23;20162;-92
2022/12/26 03:17:42;;;;;;;7.15;3.58;;;;;;;;;;6014980;23;20344;-90
2022/12/26 03:20:13;;;;;;;7.35;4.38;;;;;;;;;;6011006;23;20019;-91
2022/12/26 03:22:57;;;;;;;6.25;3.63;;;;;;;;;;6010519;23;20090;-90
2022/12/26 03:28:12;;;;;;;6.95;3.92;;;;;;;;;;6059870;23;20513;-91
2022/12/26 03:30:50;;;;;;;6.75;4.10;;;;;;;;;;6033007;23;20106;-91
2022/12/26 03:36:22;;;;;;;9.57;4.20;;;;;;;;;;6037556;23;20093;-91
2022/12/26 03:39:06;;;;;;;8.07;4.13;;;;;;;;;;6033580;23;20015;-90
2022/12/26 04:19:59;;;;;;;6.65;3.33;;;;;;;;;;6037127;23;20045;-90
2022/12/26 04:46:16;;;;;;;6.28;3.53;;;;;;;;;;5942970;23;20030;-91
2022/12/26 04:51:36;;;;;;;5.60;3.00;;;;;;;;;;5956076;23;20088;-89
2022/12/26 04:54:21;;;;;;;6.80;3.13;;;;;;;;;;5914306;23;20020;-91
2022/12/26 04:56:47;;;;;;;5.75;3.13;;;;;;;;;;5956229;23;20468;-89
2022/12/26 04:59:13;;;;;;;8.02;3.50;;;;;;;;;;5987155;23;20013;-91
2022/12/26 05:10:21;;;;;;;5.55;3.20;;;;;;;;;;6035375;23;20366;-89
2022/12/26 05:12:49;;;;;;;6.18;2.92;;;;;;;;;;5978548;23;20018;-89
2022/12/26 05:15:26;;;;;;;5.82;3.30;;;;;;;;;;6008775;23;20026;-90
2022/12/26 05:29:05;;;;;;;4.93;2.58;;;;;;;;;;6034603;23;20053;-89
2022/12/26 05:31:31;;;;;;;5.30;2.80;;;;;;;;;;6045098;23;20801;-88
2022/12/26 05:34:10;;;;;;;6.28;3.53;;;;;;;;;;6018977;23;20026;-88
2022/12/26 05:36:37;;;;;;;5.05;2.92;;;;;;;;;;6009287;23;20481;-90
2022/12/26 05:39:03;;;;;;;6.13;3.30;;;;;;;;;;6032983;23;20109;-91
2022/12/26 05:41:29;;;;;;;5.90;2.80;;;;;;;;;;6032280;23;20011;-89
2022/12/26 05:43:54;;;;;;;4.68;2.50;;;;;;;;;;5998763;23;20026;-90
2022/12/26 05:46:23;;;;;;;6.32;2.97;;;;;;;;;;6019055;23;20030;-91
2022/12/26 05:52:59;;;;;;;5.38;2.90;;;;;;;;;;6046225;23;20110;-91
2022/12/26 05:55:35;;;;;;;6.22;2.65;;;;;;;;;;6027104;23;20483;-89
2022/12/26 05:58:10;;;;;;;7.10;2.53;;;;;;;;;;6015948;23;20098;-89
2022/12/26 06:00:36;;;;;;;6.15;3.03;;;;;;;;;;5981267;23;20086;-89
2022/12/26 06:03:28;;;;;;;5.38;2.65;;;;;;;;;;6051715;23;20463;-90
2022/12/26 06:44:43;;;;;;;4.40;2.30;;;;;;;;;;6014266;23;20034;-89
2022/12/26 06:47:09;;;;;;;4.57;2.50;;;;;;;;;;5977383;23;20745;-90
2022/12/26 06:49:34;;;;;;;4.30;2.30;;;;;;;;;;5942950;23;20090;-90
2022/12/26 06:52:03;;;;;;;4.90;2.33;;;;;;;;;;5954226;23;20020;-91
2022/12/26 06:54:28;;;;;;;5.13;2.53;;;;;;;;;;5942281;23;20011;-91
2022/12/26 06:56:56;;;;;;;3.97;2.03;;;;;;;;;;6001147;23;20384;-90
2022/12/26 06:59:23;;;;;;;7.03;2.65;;;;;;;;;;5978679;23;20097;-89
2022/12/26 07:02:06;;;;;;;4.67;2.67;;;;;;;;;;5977997;23;20375;-91
2022/12/26 07:08:32;;;;;;;;;;;;;;;;;;;;;
2022/12/26 07:10:50;;;;;;;4.28;2.17;;;;;;;;;;5916913;23;20299;-90
2022/12/26 07:13:44;;;;;;;6.15;2.50;;;;;;;;;;5958250;23;20527;-90
2022/12/26 07:19:09;;;;;;;4.80;2.55;;;;;;;;;;5910804;23;20023;-90
2022/12/26 07:21:40;;;;;;;4.40;2.70;;;;;;;;;;5918941;23;20023;-92
2022/12/26 07:24:49;;;;;;;3.72;2.30;;;;;;;;;;5950803;23;20479;-91
2022/12/26 07:35:16;;;;;;;5.10;2.45;;;;;;;;;;5886382;23;20037;-90
2022/12/26 07:38:22;;;;;;;4.68;2.40;;;;;;;;;;5897544;23;20024;-91
2022/12/26 07:40:47;;;;;;;4.43;2.45;;;;;;;;;;5921862;23;20072;-88
2022/12/26 07:43:13;;;;;;;4.20;2.30;;;;;;;;;;5925063;23;20021;-88
2022/12/26 07:45:38;;;;;;;4.28;2.28;;;;;;;;;;5946155;23;20024;-87
2022/12/26 07:48:04;;;;;;;4.82;2.58;;;;;;;;;;5924844;24;20406;-88
2022/12/26 07:50:30;;;;;;;4.38;2.47;;;;;;;;;;5946109;23;20087;-88
2022/12/26 07:52:59;;;;;;;5.78;2.70;;;;;;;;;;5919674;23;20020;-88
2022/12/26 07:55:25;;;;;;;4.28;2.40;;;;;;;;;;5947188;23;20016;-88
2022/12/26 07:57:51;;;;;;;4.15;2.03;;;;;;;;;;5948059;23;20476;-86
2022/12/26 08:00:18;;;;;;;4.80;2.20;;;;;;;;;;5923487;23;20061;-87
2022/12/26 08:02:44;;;;;;;4.45;2.35;;;;;;;;;;5935665;23;20024;-88
2022/12/26 08:05:09;;;;;;;4.00;2.28;;;;;;;;;;5923768;23;20424;-88
2022/12/26 08:07:34;;;;;;;5.07;2.60;;;;;;;;;;5937328;23;20022;-88
2022/12/26 08:10:00;;;;;;;5.53;2.13;;;;;;;;;;5959807;23;20026;-89
2022/12/26 08:12:25;;;;;;;4.22;2.47;;;;;;;;;;5975588;23;20499;-88
2022/12/26 08:14:52;;;;;;;4.25;2.17;;;;;;;;;;5953072;23;20011;-90
2022/12/26 08:17:21;;;;;;;4.13;2.10;;;;;;;;;;5975698;23;20024;-89
2022/12/26 08:19:46;;;;;;;5.00;2.40;;;;;;;;;;5955114;23;20027;-88
2022/12/26 08:23:00;;;;;;;3.90;2.10;;;;;;;;;;5937842;23;20015;-91
2022/12/26 08:25:25;;;;;;;3.83;1.90;;;;;;;;;;6021956;23;20087;-82
2022/12/26 08:27:51;;;;;;;4.72;2.10;;;;;;;;;;5954382;23;20016;-82
2022/12/26 08:30:16;;;;;;;3.47;1.77;;;;;;;;;;5975710;23;20106;-82
2022/12/26 08:32:42;;;;;;;4.13;2.08;;;;;;;;;;5953952;23;20087;-82
2022/12/26 08:35:08;;;;;;;4.80;2.30;;;;;;;;;;5977527;23;20417;-83
2022/12/26 08:37:33;;;;;;;4.15;1.98;;;;;;;;;;5953620;23;20334;-83
2022/12/26 08:39:58;;;;;;;4.22;1.98;;;;;;;;;;5974506;23;20409;-85
2022/12/26 08:42:24;;;;;;;4.97;2.50;;;;;;;;;;5952275;23;20022;-83
2022/12/26 08:44:49;;;;;;;4.80;2.33;;;;;;;;;;5994964;23;20106;-84
2022/12/26 08:47:15;;;;;;;5.75;2.85;;;;;;;;;;5980498;23;20026;-81
2022/12/26 08:49:40;;;;;;;5.28;2.33;;;;;;;;;;6005577;23;20042;-81
2022/12/26 08:52:06;;;;;;;5.70;2.80;;;;;;;;;;6003865;23;20463;-83
2022/12/26 08:54:53;;;;;;;5.55;2.90;;;;;;;;;;5982844;23;20271;-89
2022/12/26 08:57:21;;;;;;;5.33;2.40;;;;;;;;;;5956999;23;20019;-89
2022/12/26 09:00:25;;;;;;;4.57;2.42;;;;;;;;;;5944551;23;20026;-92
2022/12/26 09:03:06;;;;;;;4.70;2.60;;;;;;;;;;5952336;23;20014;-89
2022/12/26 09:05:40;;;;;;;4.35;2.40;;;;;;;;;;5992043;23;20023;-89
2022/12/26 09:08:08;;;;;;;4.25;2.42;;;;;;;;;;5956539;23;20376;-90
2022/12/26 09:10:45;;;;;;;4.43;2.60;;;;;;;;;;5943186;23;20018;-89
2022/12/26 09:13:10;;;;;;;4.68;2.70;;;;;;;;;;6000420;23;20127;-88
2022/12/26 09:15:38;;;;;;;6.28;2.55;;;;;;;;;;5953012;23;21036;-88
2022/12/26 09:18:52;;;;;;;4.60;2.58;;;;;;;;;;5932175;23;20480;-91
2022/12/26 09:21:20;;;;;;;5.85;2.58;;;;;;;;;;5960259;23;20027;-91
2022/12/26 09:23:45;;;;;;;5.35;2.60;;;;;;;;;;6002761;23;20055;-88
2022/12/26 09:29:06;;;;;;;4.82;2.60;;;;;;;;;;5980987;23;20015;-90
2022/12/26 09:31:34;;;;;;;6.68;2.28;;;;;;;;;;5993227;23;20022;-90
2022/12/26 09:34:03;;;;;;;5.88;2.85;;;;;;;;;;6041514;23;20012;-90
2022/12/26 09:36:31;;;;;;;5.13;2.47;;;;;;;;;;5979607;23;20020;-89
2022/12/26 09:38:56;;;;;;;;;;;;;;;;;;6005435;23;20094;-90
2022/12/26 09:41:38;;;;;;;4.80;2.50;;;;;;;;;;5979837;23;19953;-91
2022/12/26 09:44:28;;;;;;;4.35;2.25;;;;;;;;;;6020845;23;20024;-90
2022/12/26 09:47:21;;;;;;;4.25;2.25;;;;;;;;;;5992790;23;20011;-89
2022/12/26 09:50:02;;;;;;;4.38;2.00;;;;;;;;;;6004254;23;20022;-91
2022/12/26 09:53:31;;;;;;;4.15;2.15;;;;;;;;;;5957383;23;20019;-90
2022/12/26 09:56:07;;;;;;;3.67;2.00;;;;;;;;;;5909181;24;20510;-88
2022/12/26 09:58:39;;;;;;;3.25;1.80;;;;;;;;;;5899241;24;20016;-88
2022/12/26 10:01:10;;;;;;;3.78;1.80;;;;;;;;;;5907718;24;20547;-91
2022/12/26 10:03:43;;;;;;;4.10;1.75;;;;;;;;;;5898745;24;20024;-85
2022/12/26 10:06:25;;;;;;;3.80;1.90;;;;;;;;;;5897840;24;20028;-88
2022/12/26 10:09:03;;;;;;;4.45;2.00;;;;;;;;;;5921926;24;20020;-87
2022/12/26 10:11:49;;;;;;;4.32;1.90;;;;;;;;;;5920990;24;20123;-90
2022/12/26 10:14:42;;;;;;;3.13;1.92;;;;;;;;;;5945851;24;20020;-86
2022/12/26 10:17:23;;;;;;;4.53;1.92;;;;;;;;;;5920713;24;20536;-88
2022/12/26 10:20:17;;;;;;;3.97;1.90;;;;;;;;;;5919479;24;20023;-88
2022/12/26 10:22:49;;;;;;;4.22;1.60;;;;;;;;;;5951328;24;20024;-86
2022/12/26 10:25:23;;;;;;;4.18;1.73;;;;;;;;;;5914261;24;20345;-85
2022/12/26 10:27:55;;;;;;;3.28;1.83;;;;;;;;;;5891049;24;20020;-88
2022/12/26 10:30:52;;;;;;;4.38;2.05;;;;;;;;;;5865228;24;20353;-90
2022/12/26 10:33:28;;;;;;;;;;;;;;;;;;5915148;23;20416;-88
2022/12/26 10:35:54;;;;;;;4.00;1.85;;;;;;;;;;5958937;23;19913;-88
2022/12/26 10:38:36;;;;;;;4.20;2.10;;;;;;;;;;5983408;23;20019;-87
2022/12/26 10:41:10;;;;;;;3.50;1.90;;;;;;;;;;5944268;23;20531;-88
2022/12/26 10:43:43;;;;;;;5.30;1.95;;;;;;;;;;6014524;23;20030;-87
2022/12/26 10:46:17;;;;;;;3.72;1.63;;;;;;;;;;5969865;23;20019;-87
2022/12/26 10:48:51;;;;;;;4.30;1.75;;;;;;;;;;6030540;23;20126;-87
2022/12/26 10:51:36;;;;;;;4.80;1.88;;;;;;;;;;5966204;23;20102;-87
2022/12/26 10:54:25;;;;;;;3.05;1.50;;;;;;;;;;5969020;23;20015;-89
2022/12/26 10:56:55;;;;;;;3.35;1.70;;;;;;;;;;5990412;23;20027;-88
2022/12/26 10:59:23;;;;;;;4.57;1.70;;;;;;;;;;6004721;23;20018;-89
2022/12/26 11:02:10;;;;;;;3.83;1.42;;;;;;;;;;5919313;23;20413;-88
2022/12/26 11:04:35;;;;;;;3.25;1.77;;;;;;;;;;5978793;23;20019;-90
2022/12/26 11:07:07;;;;;;;3.20;1.83;;;;;;;;;;5982534;23;20126;-88
2022/12/26 11:09:42;;;;;;;5.07;2.17;;;;;;;;;;5969279;23;20467;-88
2022/12/26 11:12:29;;;;;;;3.28;1.73;;;;;;;;;;6005610;23;20463;-86
2022/12/26 11:14:57;;;;;;;2.92;1.45;;;;;;;;;;6006020;23;20459;-88
2022/12/26 11:17:31;;;;;;;2.97;1.52;;;;;;;;;;5997398;23;20023;-88
2022/12/26 11:20:14;;;;;;;3.80;1.67;;;;;;;;;;5981929;23;20559;-86
2022/12/26 11:22:44;;;;;;;3.58;1.80;;;;;;;;;;6028911;23;20754;-85
2022/12/26 11:25:09;;;;;;;3.08;1.50;;;;;;;;;;6005794;23;20094;-86
2022/12/26 11:27:43;;;;;;;3.78;1.70;;;;;;;;;;6006280;23;20047;-86
2022/12/26 11:30:30;;;;;;;3.47;1.65;;;;;;;;;;6030207;23;20019;-85
2022/12/26 11:33:04;;;;;;;4.32;1.98;;;;;;;;;;6005701;23;20027;-86
2022/12/26 11:35:35;;;;;;;3.75;1.90;;;;;;;;;;6005557;23;20070;-84
2022/12/26 11:38:05;;;;;;;5.13;2.10;;;;;;;;;;6008899;23;20351;-85
2022/12/26 11:40:35;;;;;;;4.60;1.80;;;;;;;;;;5983136;23;20034;-85
2022/12/26 11:43:05;;;;;;;3.20;1.70;;;;;;;;;;6005984;23;20509;-85
2022/12/26 11:45:35;;;;;;;3.67;1.67;;;;;;;;;;5982477;23;20023;-84
2022/12/26 11:48:01;;;;;;;4.25;1.98;;;;;;;;;;6016925;23;20018;-86
2022/12/26 11:50:28;;;;;;;3.80;1.80;;;;;;;;;;5982920;23;20391;-86
2022/12/26 11:52:56;;;;;;;3.95;2.20;;;;;;;;;;5983432;23;20021;-86
2022/12/26 11:55:22;;;;;;;4.20;2.00;;;;;;;;;;6004898;23;20119;-86
2022/12/26 11:58:08;;;;;;;3.85;2.00;;;;;;;;;;6030977;23;20038;-87
2022/12/26 12:00:35;;;;;;;4.37;2.33;;;;;;;;;;6005313;23;20015;-85
2022/12/26 12:03:03;;;;;;;3.58;1.50;;;;;;;;;;5982466;23;20046;-85
2022/12/26 12:05:41;;;;;;;3.85;1.98;;;;;;;;;;6005485;23;20481;-86
2022/12/26 12:08:25;;;;;;;3.97;1.83;;;;;;;;;;5980369;23;20015;-86
2022/12/26 12:10:56;;;;;;;3.90;1.63;;;;;;;;;;6004188;23;20019;-86
2022/12/26 12:13:28;;;;;;;3.80;2.13;;;;;;;;;;5980797;23;20023;-85
2022/12/26 12:16:02;;;;;;;3.97;2.10;;;;;;;;;;6003279;23;20023;-86
2022/12/26 12:18:46;;;;;;;3.85;2.03;;;;;;;;;;5979677;23;20019;-87
2022/12/26 12:21:19;;;;;;;4.35;2.30;;;;;;;;;;6026894;23;20019;-86
2022/12/26 12:24:03;;;;;;;5.50;2.40;;;;;;;;;;6004116;23;20455;-85
2022/12/26 12:26:40;;;;;;;4.15;2.00;;;;;;;;;;6028355;23;20082;-86
2022/12/26 12:29:35;;;;;;;5.72;2.00;;;;;;;;;;6028295;23;20031;-86
2022/12/26 12:32:08;;;;;;;4.43;2.10;;;;;;;;;;5987890;23;20049;-86
2022/12/26 12:34:42;;;;;;;3.95;2.03;;;;;;;;;;6005070;23;20042;-86
2022/12/26 12:37:39;;;;;;;4.60;2.00;;;;;;;;;;6029263;23;20026;-86
2022/12/26 12:40:20;;;;;;;4.43;1.95;;;;;;;;;;6004627;23;20443;-86
2022/12/26 12:43:04;;;;;;;3.85;2.10;;;;;;;;;;6029144;23;20015;-85
2022/12/26 12:45:37;;;;;;;3.88;2.10;;;;;;;;;;6004417;23;20506;-86
2022/12/26 12:48:05;;;;;;;3.67;1.95;;;;;;;;;;5982293;23;20019;-87
2022/12/26 12:50:42;;;;;;;4.05;2.17;;;;;;;;;;6004673;23;20342;-86
2022/12/26 12:53:31;;;;;;;3.83;1.95;;;;;;;;;;6005324;23;20015;-86
2022/12/26 12:56:33;;;;;;;4.22;2.03;;;;;;;;;;6004927;23;20483;-85
2022/12/26 12:59:25;;;;;;;4.03;1.90;;;;;;;;;;6029173;23;20456;-86
2022/12/26 13:01:54;;;;;;;3.60;1.65;;;;;;;;;;6003416;23;20404;-86
2022/12/26 13:04:32;;;;;;;5.53;2.20;;;;;;;;;;5980468;23;20019;-86
2022/12/26 13:07:04;;;;;;;4.32;2.35;;;;;;;;;;5980938;23;20513;-86
2022/12/26 13:09:35;;;;;;;5.20;2.60;;;;;;;;;;5981750;23;20065;-85
2022/12/26 13:12:04;;;;;;;3.92;2.08;;;;;;;;;;6004285;23;20015;-85
2022/12/26 13:14:40;;;;;;;3.55;2.08;;;;;;;;;;5981007;23;20015;-84
2022/12/26 13:17:05;;;;;;;4.43;2.38;;;;;;;;;;5980845;23;20012;-86
2022/12/26 13:19:39;;;;;;;4.00;1.98;;;;;;;;;;6029753;23;20026;-86
2022/12/26 13:22:12;;;;;;;4.40;1.83;;;;;;;;;;5980878;23;20448;-86
2022/12/26 13:24:44;;;;;;;3.42;1.80;;;;;;;;;;5980777;23;20121;-85
2022/12/26 13:27:17;;;;;;;3.75;2.03;;;;;;;;;;6003730;23;20011;-85
2022/12/26 13:29:44;;;;;;;4.60;2.10;;;;;;;;;;5980234;23;20098;-85
2022/12/26 13:32:18;;;;;;;4.80;2.22;;;;;;;;;;5980088;23;20048;-86
2022/12/26 13:34:45;;;;;;;3.35;1.88;;;;;;;;;;5980942;23;20015;-85
2022/12/26 13:37:38;;;;;;;3.70;2.10;;;;;;;;;;5980050;23;20026;-85
2022/12/26 13:40:04;;;;;;;4.15;2.15;;;;;;;;;;6027720;23;20015;-86
2022/12/26 13:45:35;;;;;;;4.03;2.20;;;;;;;;;;6006626;23;20030;-85
2022/12/26 13:48:05;;;;;;;4.70;2.38;;;;;;;;;;6004553;23;20113;-84
2022/12/26 13:50:46;;;;;;;3.88;2.20;;;;;;;;;;6003203;23;20019;-86
2022/12/26 13:53:23;;;;;;;4.40;2.30;;;;;;;;;;6029147;23;20019;-84
2022/12/26 13:55:50;;;;;;;4.32;2.25;;;;;;;;;;6003037;23;20042;-86
2022/12/26 13:58:21;;;;;;;12.38;2.75;;;;;;;;;;5980920;23;20027;-84
2022/12/26 14:00:47;;;;;;;5.10;2.50;;;;;;;;;;5980372;23;20099;-86
2022/12/26 14:03:34;;;;;;;4.32;2.42;;;;;;;;;;5981076;23;20035;-86
2022/12/26 14:06:09;;;;;;;;;;;;;;;;;;5981067;23;20861;-85
2022/12/26 14:09:15;;;;;;;4.53;2.40;;;;;;;;;;5980984;23;19913;-85
2022/12/26 14:11:58;;;;;;;4.57;2.58;;;;;;;;;;6026729;23;20019;-84
2022/12/26 14:14:31;;;;;;;4.78;2.65;;;;;;;;;;6004343;23;20318;-87
2022/12/26 14:17:27;;;;;;;6.38;2.90;;;;;;;;;;5980295;23;20023;-87
2022/12/26 14:20:17;;;;;;;4.57;2.55;;;;;;;;;;6030327;23;20483;-87
2022/12/26 14:22:58;;;;;;;4.53;2.65;;;;;;;;;;5979807;23;20030;-85
2022/12/26 14:25:29;;;;;;;4.75;2.60;;;;;;;;;;6004287;23;20023;-85
2022/12/26 14:28:24;;;;;;;4.53;2.67;;;;;;;;;;5981561;23;20091;-84
2022/12/26 14:30:53;;;;;;;5.43;2.50;;;;;;;;;;6000689;23;20022;-86
2022/12/26 14:33:51;;;;;;;4.50;2.53;;;;;;;;;;6004961;23;20015;-86
2022/12/26 14:36:38;;;;;;;5.18;2.50;;;;;;;;;;6004187;23;20015;-86
2022/12/26 14:39:27;;;;;;;4.60;2.50;;;;;;;;;;6004369;23;20023;-86
2022/12/26 14:44:51;;;;;;;4.18;1.98;;;;;;;;;;6031611;23;20050;-87
2022/12/26 14:47:43;;;;;;;4.30;2.17;;;;;;;;;;6005664;23;20029;-87
2022/12/26 14:50:46;;;;;;;5.15;2.10;;;;;;;;;;6005390;23;20024;-87
2022/12/26 14:53:23;;;;;;;4.70;2.45;;;;;;;;;;6029655;23;20019;-88
2022/12/26 14:55:57;;;;;;;4.97;2.45;;;;;;;;;;6030359;23;20031;-86
2022/12/26 14:58:48;;;;;;;4.00;2.22;;;;;;;;;;6006402;23;20023;-86
2022/12/26 15:01:19;;;;;;;5.82;2.88;;;;;;;;;;6005539;23;20063;-87
2022/12/26 15:04:09;;;;;;;4.32;2.47;;;;;;;;;;5990615;23;20070;-88
2022/12/26 15:06:56;;;;;;;6.00;3.55;;;;;;;;;;6021614;23;20016;-86
2022/12/26 15:09:46;;;;;;;4.65;2.53;;;;;;;;;;6019094;23;20030;-85
2022/12/26 15:12:32;;;;;;;5.55;2.80;;;;;;;;;;6004581;23;20022;-87
2022/12/26 15:15:54;;;;;;;4.90;2.65;;;;;;;;;;6004393;23;20046;-87
2022/12/26 15:18:39;;;;;;;4.30;2.25;;;;;;;;;;5942877;24;20032;-87
2022/12/26 15:21:32;;;;;;;4.90;2.67;;;;;;;;;;5919687;24;20350;-86
2022/12/26 15:24:39;;;;;;;5.75;2.80;;;;;;;;;;5919521;24;20017;-86
2022/12/26 15:27:34;;;;;;;4.30;2.33;;;;;;;;;;5917957;24;20020;-87
2022/12/26 15:30:16;;;;;;;5.05;2.70;;;;;;;;;;5897402;24;20020;-88
2022/12/26 15:33:05;;;;;;;5.03;2.60;;;;;;;;;;5918969;24;20343;-86
2022/12/26 15:35:56;;;;;;;5.25;2.40;;;;;;;;;;5897134;24;20032;-86
2022/12/26 15:38:33;;;;;;;4.07;2.40;;;;;;;;;;5944231;24;20091;-85
2022/12/26 15:41:15;;;;;;;4.30;2.50;;;;;;;;;;5942774;24;20024;-85
2022/12/26 15:44:06;;;;;;;5.13;2.70;;;;;;;;;;5921268;24;20077;-84
2022/12/26 15:46:35;;;;;;;5.78;2.60;;;;;;;;;;5920563;24;20020;-85
2022/12/26 15:49:15;;;;;;;5.00;2.80;;;;;;;;;;5947342;23;20080;-85
2022/12/26 15:52:21;;;;;;;5.93;2.40;;;;;;;;;;6005259;23;20043;-85
2022/12/26 15:55:13;;;;;;;8.30;3.67;;;;;;;;;;6006497;23;20479;-85
2022/12/26 15:57:57;;;;;;;5.18;3.03;;;;;;;;;;6005464;23;20019;-84
2022/12/26 16:00:29;;;;;;;5.70;2.88;;;;;;;;;;6004544;23;20509;-85
2022/12/26 16:02:59;;;;;;;5.50;2.90;;;;;;;;;;5983998;23;20016;-85
2022/12/26 16:05:46;;;;;;;5.05;2.40;;;;;;;;;;6004714;23;20026;-85
2022/12/26 16:08:33;;;;;;;6.95;2.78;;;;;;;;;;6031029;23;20078;-85
2022/12/26 16:11:19;;;;;;;5.78;2.85;;;;;;;;;;6004141;23;20023;-85
2022/12/26 16:13:54;;;;;;;5.47;2.83;;;;;;;;;;5982462;23;20026;-85
2022/12/26 16:16:28;;;;;;;4.00;2.20;;;;;;;;;;5980147;23;20023;-84
2022/12/26 16:18:54;;;;;;;4.47;2.33;;;;;;;;;;5977687;23;20018;-85
2022/12/26 16:24:09;;;;;;;4.97;2.30;;;;;;;;;;6029613;23;20058;-84
2022/12/26 16:26:40;;;;;;;4.65;2.20;;;;;;;;;;5982161;23;20447;-84
2022/12/26 16:29:05;;;;;;;5.68;3.30;;;;;;;;;;6005827;23;20026;-85
2022/12/26 16:31:31;;;;;;;5.35;2.35;;;;;;;;;;5981023;23;20695;-83
2022/12/26 16:33:57;;;;;;;4.97;2.40;;;;;;;;;;5982231;23;20027;-85
2022/12/26 16:36:27;;;;;;;3.95;1.90;;;;;;;;;;5980994;23;20019;-85
2022/12/26 16:38:53;;;;;;;4.30;2.10;;;;;;;;;;5982916;23;20038;-86
2022/12/26 16:41:30;;;;;;;5.70;2.05;;;;;;;;;;5981239;23;20043;-86
2022/12/26 16:43:57;;;;;;;3.42;1.77;;;;;;;;;;5974808;23;20019;-86
2022/12/26 16:46:27;;;;;;;4.38;1.70;;;;;;;;;;5954308;23;20039;-86
2022/12/26 16:48:58;;;;;;;3.13;1.30;;;;;;;;;;5978863;23;20047;-87
2022/12/26 16:51:38;;;;;;;4.43;1.38;;;;;;;;;;5953295;23;20349;-86
2022/12/26 16:54:41;;;;;;;2.40;1.00;;;;;;;;;;5978124;23;20015;-87
2022/12/26 16:57:35;;;;;;;2.85;1.25;;;;;;;;;;5941285;23;20015;-84
2022/12/26 17:00:00;;;;;;;2.65;1.08;;;;;;;;;;5952301;23;20020;-85
2022/12/26 17:02:34;;;;;;;2.67;1.20;;;;;;;;;;5954558;23;20024;-85
2022/12/26 17:05:05;;;;;;;2.08;1.02;;;;;;;;;;5978134;23;20462;-85
2022/12/26 17:07:33;;;;;;;2.58;1.15;;;;;;;;;;5954367;23;20023;-85
2022/12/26 17:09:59;;;;;;;4.63;1.27;;;;;;;;;;5955810;23;20016;-82
2022/12/26 17:12:29;;;;;;;4.78;1.30;;;;;;;;;;5953793;23;20031;-85
2022/12/26 17:14:56;;;;;;;3.15;1.02;;;;;;;;;;5955920;23;20456;-84
2022/12/26 17:17:21;;;;;;;3.60;0.93;;;;;;;;;;5973660;23;20027;-83
2022/12/26 17:19:47;;;;;;;3.38;1.10;;;;;;;;;;5978230;23;20020;-85
2022/12/26 17:22:31;;;;;;;2.08;0.95;;;;;;;;;;5954455;23;20363;-85
2022/12/26 17:25:23;;;;;;;3.20;1.13;;;;;;;;;;5927019;23;20024;-85
2022/12/26 17:28:08;;;;;;;1.92;0.82;;;;;;;;;;6001696;23;20024;-84
2022/12/26 17:30:36;;;;;;;3.05;1.35;;;;;;;;;;5976273;23;20027;-84
2022/12/26 17:33:23;;;;;;;2.70;1.20;;;;;;;;;;5953833;23;20043;-85
2022/12/26 17:35:54;;;;;;;3.08;1.00;;;;;;;;;;5952522;23;20724;-85
2022/12/26 17:38:22;;;;;;;3.58;1.27;;;;;;;;;;5954050;23;20023;-84
2022/12/26 17:40:51;;;;;;;2.50;1.02;;;;;;;;;;5952540;23;20023;-84
2022/12/26 17:43:28;;;;;;;2.97;1.10;;;;;;;;;;5943084;23;20104;-84
2022/12/26 17:45:53;;;;;;;3.45;0.93;;;;;;;;;;5966495;23;20527;-86
2022/12/26 17:48:19;;;;;;;2.85;1.05;;;;;;;;;;6005728;23;20019;-84
2022/12/26 17:50:47;;;;;;;2.72;0.95;;;;;;;;;;5978908;23;20014;-84
2022/12/26 17:53:23;;;;;;;2.15;0.90;;;;;;;;;;5981828;23;20130;-84
2022/12/26 17:55:50;;;;;;;4.35;1.10;;;;;;;;;;6003712;23;20090;-82
2022/12/26 17:58:15;;;;;;;2.00;0.80;;;;;;;;;;5981168;23;20121;-84
2022/12/26 18:00:42;;;;;;;2.03;0.90;;;;;;;;;;5979582;23;20050;-84
2022/12/26 18:03:08;;;;;;;3.20;1.20;;;;;;;;;;6004585;23;20443;-85
2022/12/26 18:05:34;;;;;;;5.43;1.38;;;;;;;;;;5981490;23;20111;-84
2022/12/26 18:08:00;;;;;;;3.95;1.27;;;;;;;;;;5981241;23;20189;-84
2022/12/26 18:10:33;;;;;;;3.15;1.30;;;;;;;;;;5980370;23;20817;-83
2022/12/26 18:12:58;;;;;;;2.97;1.17;;;;;;;;;;6004496;23;20527;-84
2022/12/26 18:15:27;;;;;;;9.05;3.58;;;;;;;;;;5957063;23;20065;-85
2022/12/26 18:17:55;;;;;;;3.60;1.48;;;;;;;;;;5982810;23;20019;-84
2022/12/26 18:20:25;;;;;;;4.13;1.30;;;;;;;;;;5982180;23;20044;-85
2022/12/26 18:22:51;;;;;;;2.53;1.20;;;;;;;;;;5983349;23;20027;-84
2022/12/26 18:25:19;;;;;;;2.45;1.10;;;;;;;;;;5982456;23;20022;-85
2022/12/26 18:27:44;;;;;;;;;;;;;;;;;;5982313;23;20012;-84
2022/12/26 18:30:18;;;;;;;3.35;1.27;;;;;;;;;;5981834;23;19914;-82
2022/12/26 18:32:46;;;;;;;2.58;1.13;;;;;;;;;;5982572;23;20327;-83
2022/12/26 18:35:12;;;;;;;3.20;1.00;;;;;;;;;;5982326;23;20463;-82
2022/12/26 18:37:37;;;;;;;2.60;1.10;;;;;;;;;;6004489;23;20439;-83